Time;durP1;ratioP1;P1;durP2;ratioP2;P2;SDS_P1;SDS_P2;PMS_P1;PMS_P2;Temp;Humidity;BMP_temperature;BMP_pressure;BME280_temperature;BME280_humidity;BME280_pressure;Samples;Min_cycle;Max_cycle;Signal;HPM_P1;HPM_P2
2022/01/28 00:00:31;;;;;;;2.45;0.70;;;;;;;2.53;100.00;98723.91;10323018;28;20077;-60
2022/01/28 00:05:36;;;;;;;3.22;0.70;;;;;;;2.49;100.00;98738.38;10327778;28;20129;-57
2022/01/28 00:10:40;;;;;;;2.28;0.70;;;;;;;2.43;100.00;98761.72;10329959;28;20384;-56
2022/01/28 00:15:55;;;;;;;2.92;0.70;;;;;;;2.43;100.00;98750.25;10324507;28;20054;-53
2022/01/28 00:37:24;;;;;;;2.93;0.80;;;;;;;2.34;100.00;98762.34;10372780;28;20054;-59
2022/01/28 00:42:27;;;;;;;3.92;0.80;;;;;;;2.35;100.00;98766.72;10356811;28;20133;-59
2022/01/28 00:47:30;;;;;;;4.55;0.90;;;;;;;2.41;100.00;98762.78;10357154;28;20128;-60
2022/01/28 00:52:35;;;;;;;5.43;1.20;;;;;;;2.47;100.00;98784.53;10343230;28;20069;-59
2022/01/28 00:57:39;;;;;;;5.00;1.08;;;;;;;2.53;100.00;98779.78;10354059;28;20125;-58
2022/01/28 01:02:43;;;;;;;5.45;1.00;;;;;;;2.59;100.00;98788.16;10355690;28;20549;-60
2022/01/28 01:07:48;;;;;;;4.15;1.00;;;;;;;2.68;100.00;98784.03;10349017;28;20104;-60
2022/01/28 01:12:51;;;;;;;4.97;1.05;;;;;;;2.72;100.00;98809.50;10354202;28;20181;-59
2022/01/28 01:18:00;;;;;;;9.10;1.10;;;;;;;2.75;100.00;98803.13;10351054;28;20084;-59
2022/01/28 01:23:09;;;;;;;5.35;1.20;;;;;;;2.75;100.00;98788.03;10343753;28;20129;-60
2022/01/28 01:28:13;;;;;;;3.22;0.93;;;;;;;2.76;100.00;98803.00;10366868;28;20141;-60
2022/01/28 01:33:19;;;;;;;3.95;0.93;;;;;;;2.84;100.00;98822.94;10350498;28;20541;-59
2022/01/28 01:38:26;;;;;;;3.47;1.00;;;;;;;2.80;100.00;98810.78;10357421;28;20510;-60
2022/01/28 01:43:42;;;;;;;4.22;0.80;;;;;;;2.74;100.00;98828.88;10350775;28;20120;-61
2022/01/28 01:54:36;;;;;;;2.25;0.70;;;;;;;2.52;100.00;98868.50;10352624;28;20473;-62
2022/01/28 01:59:41;;;;;;;3.55;0.82;;;;;;;2.45;100.00;98839.63;10350605;28;20139;-60
2022/01/28 02:04:44;;;;;;;3.75;0.85;;;;;;;2.43;100.00;98865.44;10353746;28;20045;-61
2022/01/28 02:09:48;;;;;;;6.25;1.30;;;;;;;2.38;100.00;98848.97;10352936;28;20149;-63
2022/01/28 02:14:51;;;;;;;3.83;0.85;;;;;;;2.49;100.00;98881.97;10358561;28;20133;-58
2022/01/28 02:19:54;;;;;;;5.97;1.10;;;;;;;2.62;100.00;98866.94;10347798;28;20129;-60
2022/01/28 02:24:59;;;;;;;6.28;1.15;;;;;;;2.53;100.00;98864.88;10354052;28;20112;-62
2022/01/28 02:30:05;;;;;;;6.57;1.13;;;;;;;2.54;100.00;98874.53;10356593;28;20145;-61
2022/01/28 02:35:09;;;;;;;7.57;1.08;;;;;;;2.47;100.00;98906.00;10353759;28;20054;-59
2022/01/28 02:40:13;;;;;;;7.30;1.42;;;;;;;2.38;100.00;98922.53;10341609;28;20456;-59
2022/01/28 02:45:25;;;;;;;9.13;1.45;;;;;;;2.38;100.00;98925.19;10347492;28;20050;-61
2022/01/28 02:50:33;;;;;;;6.13;1.30;;;;;;;2.33;100.00;98914.84;10344545;28;20282;-61
2022/01/28 02:55:40;;;;;;;6.93;1.40;;;;;;;2.18;100.00;98905.19;10342282;28;20125;-60
2022/01/28 03:00:46;;;;;;;7.13;1.60;;;;;;;2.09;100.00;98919.91;10338396;28;20068;-60
2022/01/28 03:05:50;;;;;;;3.70;1.00;;;;;;;1.94;100.00;98922.56;10337688;28;20498;-61
2022/01/28 03:11:24;;;;;;;7.40;1.27;;;;;;;1.88;100.00;98919.44;10339779;28;20129;-61
2022/01/28 03:16:31;;;;;;;3.30;0.95;;;;;;;1.82;100.00;98944.56;10351207;28;20502;-62
2022/01/28 03:21:43;;;;;;;7.72;1.30;;;;;;;1.72;100.00;98941.59;10349836;28;20430;-61
2022/01/28 03:26:50;;;;;;;8.07;1.50;;;;;;;1.75;100.00;98938.78;10349131;28;20038;-61
2022/01/28 03:31:53;;;;;;;5.13;1.20;;;;;;;1.83;100.00;98944.47;10353534;28;20056;-61
2022/01/28 03:36:57;;;;;;;10.27;1.60;;;;;;;1.93;100.00;98947.44;10351590;28;20896;-60
2022/01/28 03:42:01;;;;;;;7.50;1.35;;;;;;;2.03;100.00;98957.50;10348512;28;20089;-61
2022/01/28 03:47:05;;;;;;;6.97;1.58;;;;;;;2.11;100.00;98948.09;10347352;28;20042;-60
2022/01/28 03:52:08;;;;;;;10.38;1.80;;;;;;;2.14;100.00;98963.00;10353212;28;20056;-61
2022/01/28 03:57:13;;;;;;;12.55;1.80;;;;;;;2.19;100.00;98965.38;10347191;28;20078;-62
2022/01/28 04:02:20;;;;;;;10.02;2.00;;;;;;;2.22;100.00;98973.16;10353940;28;20346;-61
2022/01/28 04:12:46;;;;;;;11.20;2.00;;;;;;;2.00;100.00;99023.16;10357792;28;20506;-62
2022/01/28 04:17:51;;;;;;;14.18;2.17;;;;;;;1.81;100.00;99026.09;10357559;28;20495;-61
2022/01/28 04:22:53;;;;;;;12.32;2.35;;;;;;;1.72;100.00;99015.97;10358350;28;20057;-61
2022/01/28 04:27:58;;;;;;;13.20;2.00;;;;;;;1.61;100.00;99023.72;10358234;28;20041;-60
2022/01/28 04:33:01;;;;;;;13.30;2.00;;;;;;;1.57;100.00;99027.53;10366281;28;20042;-62
2022/01/28 04:38:16;;;;;;;11.23;1.90;;;;;;;1.58;100.00;99023.94;10351342;28;20743;-61
2022/01/28 04:43:30;;;;;;;12.02;1.77;;;;;;;1.67;100.00;99028.69;10352789;28;20516;-59
2022/01/28 04:48:39;;;;;;;9.77;1.77;;;;;;;1.80;100.00;99035.00;10345952;28;20054;-60
2022/01/28 04:54:00;;;;;;;11.18;1.98;;;;;;;1.48;100.00;99060.78;10353191;28;20048;-61
2022/01/28 04:59:37;;;;;;;13.00;1.92;;;;;;;1.17;100.00;99071.31;10358951;28;20145;-60
2022/01/28 05:05:03;;;;;;;11.90;1.98;;;;;;;1.03;100.00;99090.69;10351538;28;20035;-60
2022/01/28 05:31:55;;;;;;;5.80;1.20;;;;;;;1.14;100.00;99129.88;10355638;28;20065;-60
2022/01/28 05:36:59;;;;;;;7.53;1.45;;;;;;;1.14;100.00;99129.03;10349867;28;20104;-61
2022/01/28 05:42:03;;;;;;;10.50;1.60;;;;;;;1.15;100.00;99114.81;10358515;28;20050;-61
2022/01/28 05:47:13;;;;;;;11.70;1.77;;;;;;;1.19;100.00;99135.81;10357186;28;20068;-62
2022/01/28 05:52:16;;;;;;;9.40;1.50;;;;;;;1.29;100.00;99145.91;10352980;28;20073;-59
2022/01/28 05:57:21;;;;;;;11.05;1.83;;;;;;;1.37;100.00;99152.50;10354968;28;20132;-60
2022/01/28 06:02:26;;;;;;;7.90;1.60;;;;;;;1.32;100.00;99156.38;10353635;28;20044;-61
2022/01/28 06:07:29;;;;;;;9.77;1.60;;;;;;;1.30;100.00;99160.91;10346885;28;20050;-60
2022/01/28 06:12:39;;;;;;;8.15;1.65;;;;;;;1.38;100.00;99162.19;10358748;28;20572;-61
2022/01/28 06:17:44;;;;;;;10.32;1.80;;;;;;;1.46;100.00;99152.94;10369914;28;20054;-58
2022/01/28 06:22:48;;;;;;;9.68;1.80;;;;;;;1.56;100.00;99158.59;10357657;28;20049;-61
2022/01/28 06:27:51;;;;;;;11.55;1.90;;;;;;;1.65;100.00;99166.88;10342327;28;20050;-62
2022/01/28 06:32:56;;;;;;;12.27;2.08;;;;;;;1.66;100.00;99191.66;10348071;28;20487;-60
2022/01/28 06:37:59;;;;;;;11.25;1.90;;;;;;;1.56;100.00;99193.13;10361237;28;20437;-61
2022/01/28 06:43:02;;;;;;;8.95;1.55;;;;;;;1.48;100.00;99183.75;10348306;28;20054;-62
2022/01/28 06:48:08;;;;;;;8.25;1.50;;;;;;;1.39;100.00;99210.84;10340323;28;20057;-61
2022/01/28 06:53:11;;;;;;;7.60;1.40;;;;;;;1.32;100.00;99222.75;10348675;28;20046;-65
2022/01/28 06:58:14;;;;;;;7.85;1.73;;;;;;;1.30;100.00;99208.69;10365460;28;20054;-59
2022/01/28 07:03:18;;;;;;;7.50;1.85;;;;;;;1.34;100.00;99220.88;10357022;28;20077;-65
2022/01/28 07:08:23;;;;;;;8.15;1.88;;;;;;;1.37;100.00;99245.44;10363637;28;20096;-58
2022/01/28 07:13:26;;;;;;;13.38;2.10;;;;;;;1.45;100.00;99226.44;10369875;28;20041;-60
2022/01/28 07:19:19;;;;;;;11.18;2.00;;;;;;;1.57;100.00;99230.22;10368405;28;20053;-62
2022/01/28 07:24:23;;;;;;;11.10;2.13;;;;;;;1.61;100.00;99244.19;10342786;28;20039;-65
2022/01/28 07:29:28;;;;;;;12.02;1.98;;;;;;;1.75;100.00;99228.34;10333101;28;20030;-63
2022/01/28 07:34:32;;;;;;;10.30;1.90;;;;;;;1.90;100.00;99244.38;10280290;28;20065;-62
2022/01/28 07:39:38;;;;;;;11.02;1.98;;;;;;;1.93;100.00;99242.41;10290182;28;20055;-64
2022/01/28 07:44:41;;;;;;;11.15;2.47;;;;;;;1.99;100.00;99252.69;10268556;28;20039;-62
2022/01/28 07:49:44;;;;;;;12.43;2.38;;;;;;;2.09;100.00;99268.97;10275309;28;20062;-63
2022/01/28 07:54:50;;;;;;;13.43;2.38;;;;;;;2.04;100.00;99270.16;10277662;28;20045;-63
2022/01/28 07:59:53;;;;;;;10.70;1.90;;;;;;;2.01;100.00;99276.53;10280366;28;20528;-62
2022/01/28 08:04:56;;;;;;;9.48;2.40;;;;;;;2.06;100.00;99282.41;10276976;28;20042;-61
2022/01/28 08:10:00;;;;;;;12.95;2.25;;;;;;;2.11;100.00;99293.66;10273112;28;20126;-64
2022/01/28 08:15:04;;;;;;;15.43;2.40;;;;;;;2.13;100.00;99293.56;10266124;28;20513;-61
2022/01/28 08:20:09;;;;;;;12.43;2.47;;;;;;;2.08;100.00;99319.56;10302798;28;20061;-62
2022/01/28 08:25:14;;;;;;;11.20;2.20;;;;;;;2.05;100.00;99336.56;10349728;28;20053;-59
2022/01/28 08:30:19;;;;;;;13.95;2.28;;;;;;;2.05;100.00;99336.56;10352270;28;20121;-61
2022/01/28 08:35:29;;;;;;;16.02;2.45;;;;;;;1.87;100.00;99346.38;10352494;28;20042;-62
2022/01/28 08:40:34;;;;;;;11.27;2.22;;;;;;;1.79;100.00;99357.44;10351937;28;20046;-61
2022/01/28 08:45:38;;;;;;;14.80;2.35;;;;;;;1.76;100.00;99354.94;10349237;28;20423;-61
2022/01/28 08:50:41;;;;;;;11.07;2.33;;;;;;;1.76;100.00;99372.69;10340442;28;20124;-61
2022/01/28 08:55:45;;;;;;;11.85;2.30;;;;;;;1.73;100.00;99368.38;10346459;28;20141;-62
2022/01/28 09:00:50;;;;;;;15.02;2.30;;;;;;;1.71;100.00;99377.38;10345789;28;20414;-59
2022/01/28 09:05:53;;;;;;;16.75;2.58;;;;;;;1.66;100.00;99385.59;10358943;28;20110;-64
2022/01/28 09:11:00;;;;;;;15.40;2.47;;;;;;;1.66;100.00;99406.84;10346365;28;20056;-60
2022/01/28 09:16:04;;;;;;;19.77;2.80;;;;;;;1.64;100.00;99401.63;10346386;28;20048;-63
2022/01/28 09:21:07;;;;;;;16.88;2.88;;;;;;;1.54;100.00;99406.53;10349015;28;20089;-60
2022/01/28 09:26:11;;;;;;;15.90;2.65;;;;;;;1.56;100.00;99402.94;10349178;28;20456;-63
2022/01/28 09:31:14;;;;;;;12.77;2.40;;;;;;;1.72;100.00;99403.84;10354265;28;20043;-62
2022/01/28 09:36:18;;;;;;;14.63;2.58;;;;;;;1.89;100.00;99413.56;10370155;28;20411;-62
2022/01/28 09:41:23;;;;;;;16.60;2.80;;;;;;;1.98;100.00;99429.06;10352722;28;20041;-63
2022/01/28 09:46:26;;;;;;;16.08;3.10;;;;;;;2.09;100.00;99417.00;10351112;28;20042;-63
2022/01/28 09:51:30;;;;;;;12.32;2.50;;;;;;;2.14;100.00;99413.13;10349495;28;20149;-63
2022/01/28 09:56:35;;;;;;;14.80;2.42;;;;;;;2.24;100.00;99431.25;10355028;28;20034;-61
2022/01/28 10:01:48;;;;;;;15.85;2.60;;;;;;;2.33;100.00;99427.22;10352436;28;20041;-62
2022/01/28 10:06:54;;;;;;;12.32;2.25;;;;;;;2.38;100.00;99446.44;10341410;28;20076;-60
2022/01/28 10:12:15;;;;;;;14.07;2.45;;;;;;;2.49;100.00;99452.03;10339424;28;20042;-63
2022/01/28 10:17:18;;;;;;;15.65;2.95;;;;;;;2.55;100.00;99467.66;10345347;28;20038;-60
2022/01/28 10:22:22;;;;;;;11.48;2.35;;;;;;;2.55;100.00;99470.31;10348266;28;20058;-62
2022/01/28 10:27:58;;;;;;;11.70;2.13;;;;;;;2.59;100.00;99463.03;10346368;28;20064;-63
2022/01/28 10:33:14;;;;;;;12.23;2.35;;;;;;;2.60;100.00;99470.06;10347583;28;20510;-62
2022/01/28 10:38:28;;;;;;;11.13;2.70;;;;;;;2.65;100.00;99473.31;10349210;28;20042;-63
2022/01/28 10:43:33;;;;;;;10.68;2.38;;;;;;;2.64;100.00;99490.25;10356137;28;20121;-63
2022/01/28 10:48:49;;;;;;;14.80;2.80;;;;;;;2.63;100.00;99496.50;10356951;28;20042;-60
2022/01/28 10:54:07;;;;;;;10.05;2.20;;;;;;;2.64;100.00;99486.72;10351866;28;20065;-62
2022/01/28 10:59:13;;;;;;;12.45;2.42;;;;;;;2.77;100.00;99509.03;10356917;28;20061;-60
2022/01/28 11:04:19;;;;;;;12.55;2.55;;;;;;;2.76;100.00;99515.31;10362013;28;20048;-62
2022/01/28 11:09:23;;;;;;;16.88;2.72;;;;;;;2.78;100.00;99526.75;10353979;28;20482;-62
2022/01/28 11:14:28;;;;;;;14.02;2.45;;;;;;;2.78;100.00;99532.06;10353063;28;20065;-63
2022/01/28 11:19:38;;;;;;;14.20;2.55;;;;;;;2.79;100.00;99520.47;10359989;28;20054;-63
2022/01/28 11:25:16;;;;;;;15.75;2.80;;;;;;;2.87;100.00;99514.72;10357883;28;20044;-63
2022/01/28 11:30:26;;;;;;;13.75;2.47;;;;;;;2.91;100.00;99521.59;10358131;28;20037;-61
2022/01/28 11:35:31;;;;;;;18.83;3.38;;;;;;;2.95;100.00;99525.81;10368429;28;20049;-60
2022/01/28 11:40:50;;;;;;;13.50;2.85;;;;;;;2.98;100.00;99519.44;10352339;28;20042;-61
2022/01/28 11:46:08;;;;;;;13.75;2.55;;;;;;;2.95;100.00;99536.44;10359019;28;20042;-62
2022/01/28 11:51:16;;;;;;;17.55;3.13;;;;;;;3.00;100.00;99523.72;10354973;28;20045;-60
2022/01/28 11:56:19;;;;;;;13.27;2.88;;;;;;;3.05;100.00;99535.00;10353599;28;20038;-62
2022/01/28 12:01:47;;;;;;;18.08;3.03;;;;;;;3.04;100.00;99530.59;10335581;28;20054;-60
2022/01/28 12:06:54;;;;;;;15.07;2.85;;;;;;;3.10;100.00;99536.53;10355584;28;20052;-59
2022/01/28 12:11:59;;;;;;;16.33;3.30;;;;;;;3.16;100.00;99528.19;10352071;28;20116;-62
2022/01/28 12:17:38;;;;;;;16.25;2.80;;;;;;;3.17;100.00;99533.47;10341030;28;20038;-62
2022/01/28 12:23:28;;;;;;;12.07;2.78;;;;;;;3.31;100.00;99530.00;10344700;28;20049;-62
2022/01/28 12:28:54;;;;;;;15.60;3.15;;;;;;;3.36;100.00;99549.22;10346173;28;20049;-64
2022/01/28 12:33:59;;;;;;;14.38;2.80;;;;;;;3.45;100.00;99526.53;10392717;22;20060;-58
2022/01/28 12:39:15;;;;;;;17.85;3.00;;;;;;;3.53;100.00;99528.75;10420373;28;20040;-53
2022/01/28 12:44:18;;;;;;;14.50;2.55;;;;;;;3.59;100.00;99528.38;10415377;28;20493;-54
2022/01/28 12:49:26;;;;;;;14.10;2.60;;;;;;;3.65;100.00;99541.38;10417376;28;20051;-53
2022/01/28 12:54:39;;;;;;;12.80;2.78;;;;;;;3.72;100.00;99525.00;10418701;28;20041;-54
2022/01/28 12:59:45;;;;;;;14.70;2.78;;;;;;;3.88;100.00;99514.31;10418200;28;20144;-52
2022/01/28 13:05:00;;;;;;;11.82;2.50;;;;;;;3.91;100.00;99525.66;10413999;28;20057;-54
2022/01/28 13:10:05;;;;;;;13.85;2.75;;;;;;;4.07;100.00;99530.03;10413094;28;20482;-55
2022/01/28 13:15:10;;;;;;;14.18;3.10;;;;;;;4.23;100.00;99533.50;10420229;28;20399;-56
2022/01/28 13:20:13;;;;;;;13.25;2.53;;;;;;;4.24;100.00;99548.56;10416780;28;20059;-53
2022/01/28 13:25:20;;;;;;;14.30;2.70;;;;;;;4.23;100.00;99544.19;10400836;28;20460;-51
2022/01/28 13:30:23;;;;;;;15.55;2.88;;;;;;;4.40;100.00;99539.63;10417383;28;20044;-55
2022/01/28 13:35:27;;;;;;;18.55;2.80;;;;;;;4.47;100.00;99547.13;10431847;28;20053;-53
2022/01/28 13:40:35;;;;;;;12.57;2.65;;;;;;;4.46;100.00;99555.25;10395679;28;20049;-54
2022/01/28 13:45:41;;;;;;;16.98;2.95;;;;;;;4.46;100.00;99547.25;10414919;28;20056;-58
2022/01/28 13:50:46;;;;;;;14.60;2.67;;;;;;;4.41;100.00;99546.69;10401937;28;20053;-57
2022/01/28 13:55:53;;;;;;;12.05;2.80;;;;;;;4.36;100.00;99586.97;10414796;28;20121;-58
2022/01/28 14:00:56;;;;;;;14.25;2.83;;;;;;;4.20;100.00;99571.03;10417135;28;20505;-60
2022/01/28 14:06:03;;;;;;;10.40;2.58;;;;;;;4.13;100.00;99569.69;10395049;28;20045;-51
2022/01/28 14:11:33;;;;;;;18.77;2.80;;;;;;;4.20;100.00;99565.69;10387262;28;20136;-59
2022/01/28 14:16:36;;;;;;;15.30;2.80;;;;;;;4.25;100.00;99584.09;10410688;28;20037;-50
2022/01/28 14:21:41;;;;;;;17.85;2.63;;;;;;;4.29;100.00;99583.81;10409666;28;20295;-50
2022/01/28 14:26:55;;;;;;;14.82;2.67;;;;;;;4.08;100.00;99588.63;10413321;28;20136;-50
2022/01/28 14:31:59;;;;;;;18.95;2.92;;;;;;;4.05;100.00;99606.63;10414362;28;20491;-53
2022/01/28 14:37:03;;;;;;;16.48;3.03;;;;;;;4.06;100.00;99611.03;10412085;28;20408;-50
2022/01/28 14:42:10;;;;;;;13.00;2.72;;;;;;;3.89;100.00;99620.84;10406542;28;20041;-54
2022/01/28 14:47:14;;;;;;;18.25;3.10;;;;;;;3.73;100.00;99631.56;10394308;28;20049;-57
2022/01/28 14:52:20;;;;;;;10.68;2.63;;;;;;;3.69;100.00;99640.66;10393634;28;20107;-53
2022/01/28 14:57:25;;;;;;;12.30;2.58;;;;;;;3.54;100.00;99639.72;10414043;28;20095;-52
2022/01/28 15:02:30;;;;;;;14.30;2.83;;;;;;;3.51;100.00;99650.53;10416275;28;20033;-53
2022/01/28 15:07:36;;;;;;;15.32;3.08;;;;;;;3.46;100.00;99665.94;10418295;28;20064;-51
2022/01/28 15:12:41;;;;;;;13.13;2.42;;;;;;;3.35;100.00;99664.72;10387746;28;20056;-53
2022/01/28 15:17:45;;;;;;;15.02;2.72;;;;;;;3.33;100.00;99665.75;10395351;28;20049;-55
2022/01/28 15:22:48;;;;;;;12.98;2.83;;;;;;;3.35;100.00;99667.38;10428079;28;20051;-58
2022/01/28 15:27:53;;;;;;;18.67;2.67;;;;;;;3.32;100.00;99680.00;10416251;28;20094;-60
2022/01/28 15:38:17;;;;;;;18.05;3.08;;;;;;;3.21;100.00;99668.13;10419764;28;20120;-52
2022/01/28 15:43:22;;;;;;;15.80;2.72;;;;;;;3.18;100.00;99678.94;10403622;28;20055;-54
2022/01/28 15:48:25;;;;;;;13.40;2.63;;;;;;;3.17;100.00;99679.06;10418564;28;20041;-50
2022/01/28 15:53:28;;;;;;;17.80;2.78;;;;;;;3.06;100.00;99699.13;10420061;28;20121;-52
2022/01/28 15:58:33;;;;;;;19.75;2.95;;;;;;;2.96;100.00;99705.00;10387893;28;20057;-56
2022/01/28 16:03:36;;;;;;;15.02;2.90;;;;;;;2.86;100.00;99720.63;10409799;28;20454;-55
2022/01/28 16:08:40;;;;;;;17.00;3.38;;;;;;;2.85;100.00;99721.56;10412880;28;20506;-50
2022/01/28 16:14:00;;;;;;;17.13;3.03;;;;;;;2.78;100.00;99721.88;10414987;28;20541;-60
2022/01/28 16:19:03;;;;;;;11.93;2.58;;;;;;;2.76;100.00;99725.56;10412836;28;20282;-51
2022/01/28 16:24:07;;;;;;;17.05;2.90;;;;;;;2.70;100.00;99729.41;10414610;28;20048;-52
2022/01/28 16:29:11;;;;;;;18.02;3.35;;;;;;;2.68;100.00;99739.25;10415769;28;20045;-51
2022/01/28 16:34:15;;;;;;;16.75;3.47;;;;;;;2.62;100.00;99745.75;10412721;28;20053;-56
2022/01/28 16:39:42;;;;;;;21.10;3.42;;;;;;;2.57;100.00;99752.25;10419017;28;20043;-52
2022/01/28 16:44:54;;;;;;;18.93;3.23;;;;;;;2.40;100.00;99751.31;10417074;28;20049;-59
2022/01/28 16:49:57;;;;;;;22.65;4.00;;;;;;;2.31;100.00;99765.03;10411474;28;20064;-54
2022/01/28 16:55:05;;;;;;;23.27;3.40;;;;;;;2.29;100.00;99758.97;10415407;28;20131;-52
2022/01/28 17:00:10;;;;;;;19.17;3.35;;;;;;;2.30;100.00;99755.34;10415439;28;20073;-54
2022/01/28 17:05:15;;;;;;;16.77;3.13;;;;;;;2.30;100.00;99755.34;10414562;28;20446;-51
2022/01/28 17:10:42;;;;;;;17.00;3.38;;;;;;;2.31;100.00;99757.94;10403202;28;20041;-55
2022/01/28 17:15:47;;;;;;;19.35;3.05;;;;;;;2.31;100.00;99778.34;10427994;28;20068;-57
2022/01/28 17:20:53;;;;;;;22.70;3.00;;;;;;;2.29;100.00;99774.91;10420160;28;20068;-58
2022/01/28 17:25:56;;;;;;;19.02;3.70;;;;;;;2.29;100.00;99769.59;10423944;28;20128;-54
2022/01/28 17:31:00;;;;;;;22.10;3.83;;;;;;;2.25;100.00;99770.66;10427034;28;20047;-52
2022/01/28 17:36:04;;;;;;;20.83;3.40;;;;;;;2.20;100.00;99778.00;10415097;28;20460;-55
2022/01/28 17:41:09;;;;;;;21.23;3.25;;;;;;;2.17;100.00;99780.84;10415975;28;20037;-56
2022/01/28 17:46:14;;;;;;;17.15;3.42;;;;;;;2.14;100.00;99782.69;10393780;28;20050;-50
2022/01/28 17:51:18;;;;;;;17.08;3.40;;;;;;;2.09;100.00;99790.03;10396901;28;20057;-54
2022/01/28 17:56:21;;;;;;;19.73;3.40;;;;;;;2.15;100.00;99789.75;10404352;28;20045;-55
2022/01/28 18:01:26;;;;;;;17.52;3.53;;;;;;;2.17;100.00;99802.09;10415477;28;20509;-60
2022/01/28 18:06:29;;;;;;;19.60;3.53;;;;;;;2.19;100.00;99798.44;10410900;28;20064;-53
2022/01/28 18:11:33;;;;;;;18.08;3.47;;;;;;;2.12;100.00;99805.84;10415307;28;20045;-60
2022/01/28 18:16:37;;;;;;;21.38;3.67;;;;;;;1.98;100.00;99805.63;10418585;28;20045;-51
2022/01/28 18:21:41;;;;;;;23.58;3.50;;;;;;;1.90;100.00;99813.09;10414799;28;20033;-51
2022/01/28 18:26:44;;;;;;;17.75;3.03;;;;;;;1.90;100.00;99810.44;10410672;28;20133;-51
2022/01/28 18:31:50;;;;;;;16.35;3.00;;;;;;;1.85;100.00;99800.03;10412984;28;20060;-57
2022/01/28 18:36:54;;;;;;;20.13;3.47;;;;;;;1.93;100.00;99808.50;10398353;28;20057;-58
2022/01/28 18:42:03;;;;;;;26.48;3.50;;;;;;;1.85;100.00;99808.84;10433011;23;20053;-79
2022/01/28 18:47:17;;;;;;;22.30;3.30;;;;;;;1.82;100.00;99816.97;10455167;28;20043;-79
2022/01/28 18:52:23;;;;;;;19.98;3.60;;;;;;;1.82;100.00;99813.44;10441051;28;20165;-80
2022/01/28 18:57:27;;;;;;;16.20;3.47;;;;;;;1.90;100.00;99819.25;10457021;28;20049;-79
2022/01/28 19:02:32;;;;;;;20.23;4.72;;;;;;;1.91;100.00;99818.34;10457060;28;20510;-79
2022/01/28 19:07:37;;;;;;;22.52;4.20;;;;;;;1.91;100.00;99823.66;10469538;28;20328;-78
2022/01/28 19:12:41;;;;;;;28.10;5.78;;;;;;;1.82;100.00;99816.97;10462170;28;20037;-80
2022/01/28 19:17:46;;;;;;;18.17;4.63;;;;;;;1.84;100.00;99814.25;10455354;28;20055;-80
2022/01/28 19:22:49;;;;;;;17.75;3.90;;;;;;;1.80;100.00;99813.53;10455867;28;20040;-80
2022/01/28 19:27:53;;;;;;;15.02;3.22;;;;;;;1.81;100.00;99806.41;10459537;28;20043;-81
2022/01/28 19:32:57;;;;;;;21.50;3.78;;;;;;;1.83;100.00;99800.09;10461381;28;20374;-79
2022/01/28 19:38:00;;;;;;;23.65;3.72;;;;;;;1.93;100.00;99799.69;10457897;28;20045;-79
2022/01/28 19:43:03;;;;;;;20.65;3.80;;;;;;;1.96;100.00;99802.16;10471592;28;20055;-78
2022/01/28 19:48:08;;;;;;;21.33;3.20;;;;;;;2.00;100.00;99796.63;10454191;28;20047;-78
2022/01/28 19:53:11;;;;;;;15.07;3.00;;;;;;;2.10;100.00;99806.84;10467033;28;20049;-78
2022/01/28 19:58:14;;;;;;;21.30;3.28;;;;;;;2.20;100.00;99793.94;10472292;28;20041;-78
2022/01/28 20:03:19;;;;;;;17.38;3.40;;;;;;;2.19;100.00;99805.53;10471322;28;20506;-77
2022/01/28 20:08:22;;;;;;;16.50;3.13;;;;;;;2.21;100.00;99807.19;10443553;28;20057;-77
2022/01/28 20:13:25;;;;;;;22.80;3.20;;;;;;;2.25;100.00;99805.25;10450363;28;20065;-77
2022/01/28 20:18:30;;;;;;;17.80;3.40;;;;;;;2.24;100.00;99796.38;10447591;28;20045;-79
2022/01/28 20:23:33;;;;;;;17.63;3.10;;;;;;;2.30;100.00;99787.25;10454334;28;20413;-78
2022/01/28 20:28:37;;;;;;;17.65;3.08;;;;;;;2.36;100.00;99802.94;10471079;28;20049;-78
2022/01/28 20:33:41;;;;;;;14.57;3.00;;;;;;;2.39;100.00;99786.81;10452519;28;20136;-79
2022/01/28 20:38:44;;;;;;;22.48;3.20;;;;;;;2.41;100.00;99790.25;10460372;28;20057;-80
2022/01/28 20:43:49;;;;;;;16.85;2.83;;;;;;;2.42;100.00;99801.75;10444957;28;20470;-78
2022/01/28 20:48:53;;;;;;;17.10;3.28;;;;;;;2.46;100.00;99798.88;10452831;28;20051;-80
2022/01/28 20:53:57;;;;;;;16.63;2.78;;;;;;;2.44;100.00;99784.78;10464996;28;20103;-80
2022/01/28 20:59:00;;;;;;;16.42;3.10;;;;;;;2.37;100.00;99770.06;10448191;28;20562;-80
2022/01/28 21:04:06;;;;;;;17.38;2.85;;;;;;;2.32;100.00;99769.41;10457194;28;20036;-81
2022/01/28 21:09:09;;;;;;;17.90;2.83;;;;;;;2.28;100.00;99751.91;10441316;28;20041;-78
2022/01/28 21:14:13;;;;;;;19.63;3.17;;;;;;;2.15;100.00;99748.97;10450193;28;20041;-78
2022/01/28 21:19:18;;;;;;;20.98;3.42;;;;;;;2.12;100.00;99738.47;10451869;28;20101;-78
2022/01/28 21:24:21;;;;;;;17.98;3.17;;;;;;;2.02;100.00;99730.13;10431972;28;20048;-78
2022/01/28 21:29:24;;;;;;;21.00;3.85;;;;;;;1.96;100.00;99727.75;10447896;28;20143;-77
2022/01/28 21:34:28;;;;;;;17.23;3.47;;;;;;;1.89;100.00;99713.03;10445924;28;20408;-78
2022/01/28 21:39:32;;;;;;;16.30;2.90;;;;;;;1.82;100.00;99707.16;10447711;28;20041;-77
2022/01/28 21:44:36;;;;;;;20.77;3.30;;;;;;;1.76;100.00;99713.63;10453214;28;20041;-78
2022/01/28 21:49:40;;;;;;;21.13;3.75;;;;;;;1.72;100.00;99711.19;10450147;28;20043;-76
2022/01/28 21:54:44;;;;;;;17.98;4.10;;;;;;;1.65;100.00;99713.28;10441801;28;20818;-77
2022/01/28 21:59:47;;;;;;;19.05;3.70;;;;;;;1.54;100.00;99712.00;10446064;28;20040;-77
2022/01/28 22:04:52;;;;;;;19.92;4.07;;;;;;;1.51;100.00;99714.78;10451221;28;20041;-78
2022/01/28 22:09:55;;;;;;;17.08;3.42;;;;;;;1.45;100.00;99720.41;10463551;28;20055;-80
2022/01/28 22:14:58;;;;;;;17.67;3.45;;;;;;;1.48;100.00;99722.88;10450020;28;20401;-83
2022/01/28 22:20:03;;;;;;;20.33;3.40;;;;;;;1.49;100.00;99719.31;10430933;28;20076;-82
2022/01/28 22:25:07;;;;;;;16.42;3.30;;;;;;;1.48;100.00;99728.19;10445205;28;20055;-82
2022/01/28 22:30:16;;;;;;;20.42;3.03;;;;;;;1.49;100.00;99703.38;10470002;28;20399;-81
2022/01/28 22:35:20;;;;;;;15.32;3.20;;;;;;;1.60;100.00;99686.06;10453491;28;20041;-82
2022/01/28 22:40:24;;;;;;;17.52;3.35;;;;;;;1.62;100.00;99685.06;10435329;28;20095;-79
2022/01/28 22:45:26;;;;;;;19.20;3.05;;;;;;;1.65;100.00;99678.75;10458471;28;20150;-83
2022/01/28 22:50:32;;;;;;;16.77;3.30;;;;;;;1.58;100.00;99667.53;10436879;28;20488;-82
2022/01/28 23:01:01;;;;;;;13.65;3.58;;;;;;;1.48;100.00;99656.47;10436118;28;20066;-82
2022/01/28 23:06:05;;;;;;;21.88;3.42;;;;;;;1.44;100.00;99654.94;10461199;28;20048;-79
2022/01/28 23:11:08;;;;;;;18.90;3.70;;;;;;;1.43;100.00;99645.25;10453001;28;20039;-81
2022/01/28 23:16:12;;;;;;;18.23;3.70;;;;;;;1.37;100.00;99648.16;10442541;28;20052;-81
2022/01/28 23:21:17;;;;;;;18.42;3.55;;;;;;;1.29;100.00;99637.06;10437551;28;20040;-81
2022/01/28 23:26:22;;;;;;;21.52;3.70;;;;;;;1.25;100.00;99622.19;10434675;28;20428;-81
2022/01/28 23:31:27;;;;;;;15.65;3.47;;;;;;;1.20;100.00;99607.38;10428280;28;20140;-80
2022/01/28 23:36:33;;;;;;;15.95;3.25;;;;;;;1.16;100.00;99620.84;10449454;28;20560;-82
2022/01/28 23:41:38;;;;;;;16.90;3.13;;;;;;;1.17;100.00;99611.97;10446596;28;20294;-82
2022/01/28 23:47:21;;;;;;;16.40;3.50;;;;;;;1.29;100.00;99606.06;10469083;28;20049;-81
2022/01/28 23:52:26;;;;;;;17.35;3.40;;;;;;;1.36;100.00;99593.34;10447892;28;20055;-81
2022/01/28 23:57:33;;;;;;;12.43;2.97;;;;;;;1.42;100.00;99598.38;10471115;28;20132;-80
